createdAt,value
2022-08-24T00:00:32.774Z,1.45
2022-08-24T00:05:40.075Z,1.65
2022-08-24T00:10:44.904Z,1.50
2022-08-24T00:15:50.182Z,1.60
2022-08-24T00:20:57.780Z,1.50
2022-08-24T00:26:02.909Z,1.65
2022-08-24T00:31:08.165Z,1.70
2022-08-24T00:36:15.903Z,1.70
2022-08-24T00:41:21.519Z,1.60
2022-08-24T00:46:29.830Z,1.60
2022-08-24T00:51:42.162Z,1.88
2022-08-24T00:56:51.471Z,1.60
2022-08-24T01:01:59.137Z,1.50
2022-08-24T01:07:13.478Z,1.35
2022-08-24T01:12:18.906Z,1.60
2022-08-24T01:17:38.769Z,1.50
2022-08-24T01:23:08.333Z,1.40
2022-08-24T01:28:25.180Z,1.70
2022-08-24T01:33:34.388Z,1.63
2022-08-24T01:38:39.257Z,1.90
2022-08-24T01:43:46.459Z,1.80
2022-08-24T01:48:51.191Z,1.73
2022-08-24T01:53:55.882Z,1.60
2022-08-24T01:59:03.541Z,1.75
2022-08-24T02:04:10.180Z,1.80
2022-08-24T02:09:16.244Z,2.00
2022-08-24T02:14:23.490Z,1.95
2022-08-24T02:19:31.559Z,1.73
2022-08-24T02:24:36.950Z,1.65
2022-08-24T02:29:44.263Z,1.77
2022-08-24T02:34:48.857Z,1.70
2022-08-24T02:39:54.091Z,1.70
2022-08-24T02:45:03.702Z,1.80
2022-08-24T02:50:10.538Z,1.80
2022-08-24T02:55:19.965Z,2.20
2022-08-24T03:00:28.307Z,1.90
2022-08-24T03:05:34.456Z,2.58
2022-08-24T03:10:39.637Z,2.10
2022-08-24T03:15:48.003Z,2.28
2022-08-24T03:20:52.784Z,2.38
2022-08-24T03:25:58.449Z,2.45
2022-08-24T03:31:05.845Z,2.40
2022-08-24T03:36:14.318Z,2.13
2022-08-24T03:41:19.676Z,2.20
2022-08-24T03:46:30.834Z,2.30
2022-08-24T03:51:35.617Z,2.55
2022-08-24T03:56:40.342Z,2.25
2022-08-24T04:01:47.889Z,2.17
2022-08-24T04:06:52.869Z,2.22
2022-08-24T04:11:57.917Z,2.58
2022-08-24T04:17:07.377Z,2.17
2022-08-24T04:22:17.555Z,2.05
2022-08-24T04:27:22.132Z,2.70
2022-08-24T04:32:29.323Z,2.80
2022-08-24T04:37:33.951Z,2.92
2022-08-24T04:42:39.178Z,2.67
2022-08-24T04:47:46.907Z,2.70
2022-08-24T04:52:51.932Z,2.65
2022-08-24T04:57:56.610Z,2.80
2022-08-24T05:03:04.135Z,2.20
2022-08-24T05:08:09.231Z,2.60
2022-08-24T05:13:14.812Z,2.53
2022-08-24T05:18:23.073Z,2.30
2022-08-24T05:23:30.224Z,2.40
2022-08-24T05:28:35.575Z,2.65
2022-08-24T05:33:43.866Z,2.35
2022-08-24T05:38:51.208Z,2.45
2022-08-24T05:43:57.023Z,2.47
2022-08-24T05:49:04.644Z,2.40
2022-08-24T05:54:11.852Z,2.50
2022-08-24T05:59:28.516Z,2.20
2022-08-24T06:04:38.553Z,2.40
2022-08-24T06:09:45.563Z,2.38
2022-08-24T06:14:50.644Z,2.40
2022-08-24T06:20:02.729Z,2.15
2022-08-24T06:25:22.097Z,2.20
2022-08-24T06:30:30.743Z,2.17
2022-08-24T06:35:38.366Z,2.35
2022-08-24T06:40:44.084Z,2.00
2022-08-24T06:45:49.694Z,2.30
2022-08-24T06:50:59.856Z,2.50
2022-08-24T06:56:05.544Z,2.17
2022-08-24T07:01:12.638Z,2.10
2022-08-24T07:06:20.783Z,2.22
2022-08-24T07:11:25.831Z,2.03
2022-08-24T07:16:31.478Z,2.13
2022-08-24T07:21:42.643Z,2.20
2022-08-24T07:26:48.195Z,2.03
2022-08-24T07:31:53.716Z,1.80
2022-08-24T07:37:09.155Z,1.80
2022-08-24T07:42:25.383Z,1.90
2022-08-24T07:47:39.030Z,1.90
2022-08-24T07:52:57.368Z,1.63
2022-08-24T07:58:02.305Z,1.70
2022-08-24T08:03:08.080Z,1.35
2022-08-24T08:08:16.830Z,1.83
2022-08-24T08:13:22.478Z,1.30
2022-08-24T08:18:34.012Z,1.15
2022-08-24T08:23:58.572Z,1.30
2022-08-24T08:29:10.626Z,1.20
2022-08-24T08:34:16.392Z,1.50
2022-08-24T08:39:25.978Z,1.33
2022-08-24T08:44:53.471Z,1.30
2022-08-24T08:50:16.567Z,1.20
2022-08-24T08:55:35.650Z,1.30
2022-08-24T09:00:55.534Z,1.30
2022-08-24T09:06:13.107Z,1.30
2022-08-24T09:11:32.522Z,1.00
2022-08-24T09:16:53.435Z,0.85
2022-08-24T09:22:11.731Z,1.10
2022-08-24T09:27:32.747Z,0.85
2022-08-24T09:32:44.985Z,1.10
2022-08-24T09:38:02.629Z,1.20
2022-08-24T09:43:45.486Z,1.08
2022-08-24T09:49:20.704Z,0.98
2022-08-24T09:54:58.205Z,0.95
2022-08-24T10:00:18.670Z,1.15
2022-08-24T10:05:36.357Z,1.20
2022-08-24T10:10:54.640Z,1.00
2022-08-24T10:16:19.647Z,0.90
2022-08-24T10:21:39.247Z,1.08
2022-08-24T10:27:04.904Z,1.08
2022-08-24T10:32:25.019Z,1.10
2022-08-24T10:38:20.459Z,1.10
2022-08-24T10:43:59.470Z,1.10
2022-08-24T10:49:34.622Z,1.05
2022-08-24T10:54:42.441Z,1.10
2022-08-24T10:59:58.435Z,1.00
2022-08-24T11:05:05.913Z,0.90
2022-08-24T11:10:13.411Z,1.00
2022-08-24T11:15:28.077Z,1.00
2022-08-24T11:20:36.572Z,1.00
2022-08-24T11:25:54.437Z,1.10
2022-08-24T11:30:59.298Z,0.80
2022-08-24T11:36:05.694Z,0.88
2022-08-24T11:41:19.459Z,1.15
2022-08-24T11:46:32.164Z,0.90
2022-08-24T11:51:44.061Z,0.82
2022-08-24T11:57:04.707Z,0.90
2022-08-24T12:02:20.512Z,0.88
2022-08-24T12:07:37.382Z,0.98
2022-08-24T12:12:49.984Z,1.20
2022-08-24T12:18:02.873Z,1.10
2022-08-24T12:23:14.518Z,1.10
2022-08-24T12:28:27.296Z,0.88
2022-08-24T12:33:37.634Z,0.70
2022-08-24T12:38:47.638Z,0.90
2022-08-24T12:43:58.645Z,0.90
2022-08-24T12:49:07.814Z,0.75
2022-08-24T12:54:29.324Z,0.80
2022-08-24T12:59:41.903Z,0.90
2022-08-24T13:04:59.368Z,0.70
2022-08-24T13:10:16.558Z,0.80
2022-08-24T13:16:00.912Z,0.98
2022-08-24T13:21:18.366Z,0.80
2022-08-24T13:26:29.370Z,0.80
2022-08-24T13:31:43.518Z,0.70
2022-08-24T13:36:56.482Z,1.00
2022-08-24T13:42:14.637Z,0.60
2022-08-24T13:47:27.751Z,0.80
2022-08-24T13:52:45.178Z,0.82
2022-08-24T13:58:05.433Z,0.90
2022-08-24T14:03:29.414Z,0.70
2022-08-24T14:08:46.689Z,0.70
2022-08-24T14:14:05.870Z,0.80
2022-08-24T14:19:23.450Z,0.82
2022-08-24T14:24:34.144Z,0.70
2022-08-24T14:29:42.250Z,0.80
2022-08-24T14:35:01.335Z,0.70
2022-08-24T14:40:18.086Z,0.70
2022-08-24T14:45:26.055Z,0.90
2022-08-24T14:50:38.794Z,0.70
2022-08-24T14:55:51.248Z,0.70
2022-08-24T15:01:15.206Z,0.70
2022-08-24T15:06:28.662Z,0.77
2022-08-24T15:11:33.498Z,0.80
2022-08-24T15:16:53.943Z,0.70
2022-08-24T15:22:05.526Z,0.60
2022-08-24T15:27:29.941Z,0.70
2022-08-24T15:32:49.239Z,0.68
2022-08-24T15:37:56.598Z,0.70
2022-08-24T15:43:04.255Z,0.80
2022-08-24T15:48:09.228Z,0.63
2022-08-24T15:53:33.664Z,0.75
2022-08-24T15:58:41.103Z,0.70
2022-08-24T16:03:50.234Z,0.63
2022-08-24T16:09:03.911Z,0.70
2022-08-24T16:14:14.231Z,0.65
2022-08-24T16:19:27.103Z,0.90
2022-08-24T16:24:37.816Z,0.85
2022-08-24T16:29:56.343Z,0.60
2022-08-24T16:35:21.690Z,0.80
2022-08-24T16:40:31.625Z,0.70
2022-08-24T16:45:36.690Z,0.70
2022-08-24T16:50:41.644Z,0.70
2022-08-24T16:55:48.990Z,0.70
2022-08-24T17:00:53.850Z,0.70
2022-08-24T17:06:01.151Z,0.80
2022-08-24T17:11:08.924Z,0.77
2022-08-24T17:16:15.473Z,0.80
2022-08-24T17:21:20.458Z,0.80
2022-08-24T17:26:27.829Z,0.80
2022-08-24T17:31:33.935Z,1.08
2022-08-24T17:36:39.169Z,1.00
2022-08-24T17:41:47.429Z,0.80
2022-08-24T17:46:56.382Z,0.80
2022-08-24T17:52:01.384Z,0.90
2022-08-24T17:57:08.828Z,0.80
2022-08-24T18:02:15.393Z,0.98
2022-08-24T18:07:42.276Z,0.82
2022-08-24T18:12:50.723Z,0.80
2022-08-24T18:17:55.891Z,1.10
2022-08-24T18:23:02.197Z,0.98
2022-08-24T18:28:10.529Z,0.98
2022-08-24T18:33:15.768Z,1.00
2022-08-24T18:38:20.525Z,1.25
2022-08-24T18:43:28.354Z,1.00
2022-08-24T18:48:33.057Z,1.10
2022-08-24T18:53:38.229Z,1.23
2022-08-24T18:58:46.500Z,1.05
2022-08-24T19:03:51.311Z,1.10
2022-08-24T19:08:56.325Z,1.20
2022-08-24T19:14:03.687Z,1.23
2022-08-24T19:19:08.340Z,1.30
2022-08-24T19:24:13.291Z,1.27
2022-08-24T19:29:39.018Z,1.27
2022-08-24T19:34:45.879Z,1.10
2022-08-24T19:39:51.192Z,1.17
2022-08-24T19:45:11.751Z,1.20
2022-08-24T19:50:21.217Z,1.30
2022-08-24T19:55:26.244Z,1.10
2022-08-24T20:00:38.690Z,1.20
2022-08-24T20:05:43.391Z,1.20
2022-08-24T20:10:48.177Z,1.30
2022-08-24T20:15:56.117Z,1.30
2022-08-24T20:21:01.289Z,1.15
2022-08-24T20:26:09.235Z,1.40
2022-08-24T20:31:17.511Z,1.33
2022-08-24T20:36:27.910Z,1.30
2022-08-24T20:41:33.716Z,1.40
2022-08-24T20:46:46.583Z,1.35
2022-08-24T20:51:52.647Z,1.60
2022-08-24T20:56:57.317Z,1.38
2022-08-24T21:02:04.868Z,1.60
2022-08-24T21:07:12.689Z,1.55
2022-08-24T21:12:17.522Z,1.60
2022-08-24T21:17:26.982Z,1.48
2022-08-24T21:22:31.513Z,1.50
2022-08-24T21:27:38.533Z,1.50
2022-08-24T21:32:58.368Z,1.40
2022-08-24T21:38:03.028Z,1.55
2022-08-24T21:43:14.911Z,1.63
2022-08-24T21:48:25.142Z,1.50
2022-08-24T21:53:30.577Z,1.60
2022-08-24T21:58:35.450Z,1.70
2022-08-24T22:03:44.849Z,1.80
2022-08-24T22:08:49.570Z,1.52
2022-08-24T22:13:55.424Z,1.42
2022-08-24T22:19:04.161Z,1.63
2022-08-24T22:24:09.227Z,2.00
2022-08-24T22:29:15.219Z,1.60
2022-08-24T22:34:22.671Z,1.80
2022-08-24T22:39:28.995Z,1.65
2022-08-24T22:44:34.989Z,1.75
2022-08-24T22:49:44.380Z,1.80
2022-08-24T22:54:48.967Z,1.80
2022-08-24T22:59:53.753Z,1.80
2022-08-24T23:05:01.031Z,1.90
2022-08-24T23:10:08.204Z,2.00
2022-08-24T23:15:13.148Z,2.08
2022-08-24T23:20:20.606Z,1.83
2022-08-24T23:25:25.328Z,2.00
2022-08-24T23:30:29.958Z,2.30
2022-08-24T23:35:39.296Z,2.03
2022-08-24T23:40:44.437Z,2.25
2022-08-24T23:45:49.051Z,2.40
2022-08-24T23:50:56.618Z,2.30
2022-08-24T23:56:09.817Z,2.10
